createdAt,value
2023-03-14T00:01:15.491Z,98543.06
2023-03-14T00:03:42.510Z,98555.81
2023-03-14T00:06:10.084Z,98546.44
2023-03-14T00:08:37.592Z,98572.38
2023-03-14T00:11:15.930Z,98611.50
2023-03-14T00:13:42.464Z,98646.13
2023-03-14T00:16:12.104Z,98648.72
2023-03-14T00:18:39.513Z,98650.28
2023-03-14T00:21:08.081Z,98666.44
2023-03-14T00:23:36.650Z,98675.72
2023-03-14T00:26:06.077Z,98669.50
2023-03-14T00:28:32.982Z,98688.72
2023-03-14T00:30:59.535Z,98692.41
2023-03-14T00:33:26.018Z,98696.91
2023-03-14T00:36:01.185Z,98692.19
2023-03-14T00:38:30.807Z,98725.03
2023-03-14T00:40:58.172Z,98725.34
2023-03-14T00:43:25.193Z,98741.09
2023-03-14T00:45:53.111Z,98745.69
2023-03-14T00:48:20.664Z,98751.09
2023-03-14T00:50:47.801Z,98751.38
2023-03-14T00:53:15.718Z,98748.97
2023-03-14T00:55:43.670Z,98756.84
2023-03-14T00:58:11.704Z,98767.28
2023-03-14T01:00:38.845Z,98775.09
2023-03-14T01:03:06.315Z,98778.63
2023-03-14T01:05:33.165Z,98777.84
2023-03-14T01:07:59.711Z,98777.91
2023-03-14T01:10:27.817Z,98782.19
2023-03-14T01:12:54.420Z,98800.25
2023-03-14T01:15:21.323Z,98802.84
2023-03-14T01:17:47.907Z,98807.16
2023-03-14T01:20:15.607Z,98814.13
2023-03-14T01:22:43.227Z,98824.38
2023-03-14T01:25:13.290Z,98831.28
2023-03-14T01:27:39.825Z,98838.19
2023-03-14T01:30:07.419Z,98846.78
2023-03-14T01:32:33.986Z,98855.47
2023-03-14T01:35:00.781Z,98852.03
2023-03-14T01:37:27.463Z,98851.22
2023-03-14T01:39:54.068Z,98864.09
2023-03-14T01:42:20.763Z,98868.34
2023-03-14T01:44:53.234Z,98866.66
2023-03-14T01:47:19.928Z,98880.38
2023-03-14T01:49:50.150Z,98874.44
2023-03-14T01:52:22.839Z,98872.75
2023-03-14T01:54:59.835Z,98885.50
2023-03-14T01:57:33.125Z,98888.94
2023-03-14T02:00:15.311Z,98875.31
2023-03-14T02:02:56.427Z,98888.94
2023-03-14T02:05:29.434Z,98899.25
2023-03-14T02:08:03.096Z,98904.44
2023-03-14T02:10:39.522Z,98907.09
2023-03-14T02:13:07.662Z,98925.16
2023-03-14T02:15:46.074Z,98929.44
2023-03-14T02:18:32.897Z,98926.88
2023-03-14T02:21:45.874Z,98932.13
2023-03-14T02:24:28.275Z,98940.66
2023-03-14T02:27:03.879Z,98943.25
2023-03-14T02:29:33.473Z,98936.53
2023-03-14T02:32:03.382Z,98960.47
2023-03-14T02:34:31.108Z,98952.84
2023-03-14T02:36:57.834Z,98966.56
2023-03-14T02:39:32.931Z,98961.56
2023-03-14T02:41:59.447Z,98971.03
2023-03-14T02:44:26.093Z,98980.56
2023-03-14T02:46:52.754Z,98993.53
2023-03-14T02:49:19.428Z,99008.19
2023-03-14T02:51:47.004Z,99004.81
2023-03-14T02:54:16.320Z,99010.03
2023-03-14T02:56:43.055Z,99026.38
2023-03-14T02:59:12.620Z,99028.19
2023-03-14T03:01:46.230Z,99040.22
2023-03-14T03:04:12.730Z,99051.47
2023-03-14T03:06:39.233Z,99057.53
2023-03-14T03:09:05.807Z,99053.38
2023-03-14T03:11:32.298Z,99061.16
2023-03-14T03:13:58.901Z,99071.47
2023-03-14T03:16:28.133Z,99068.94
2023-03-14T03:18:54.659Z,99091.31
2023-03-14T03:21:21.206Z,99096.44
2023-03-14T03:23:47.678Z,99102.44
2023-03-14T03:26:14.132Z,99104.19
2023-03-14T03:28:40.596Z,99109.38
2023-03-14T03:31:10.469Z,99116.28
2023-03-14T03:33:38.546Z,99128.31
2023-03-14T03:36:05.623Z,99136.91
2023-03-14T03:38:36.266Z,99139.53
2023-03-14T03:41:06.873Z,99146.44
2023-03-14T03:43:33.566Z,99163.56
2023-03-14T03:46:06.536Z,99155.88
2023-03-14T03:48:33.585Z,99166.97
2023-03-14T03:51:03.404Z,99169.53
2023-03-14T03:53:33.504Z,99174.63
2023-03-14T03:56:04.254Z,99176.34
2023-03-14T03:58:30.810Z,99184.94
2023-03-14T04:00:57.344Z,99184.94
2023-03-14T04:03:24.381Z,99194.34
2023-03-14T04:06:05.930Z,99203.75
2023-03-14T04:08:34.383Z,99208.94
2023-03-14T04:11:02.732Z,99214.09
2023-03-14T04:13:48.202Z,99217.53
2023-03-14T04:16:21.521Z,99215.00
2023-03-14T04:18:48.596Z,99238.09
2023-03-14T04:21:16.204Z,99231.25
2023-03-14T04:23:49.044Z,99239.81
2023-03-14T04:26:17.121Z,99251.81
2023-03-14T04:28:44.600Z,99249.25
2023-03-14T04:31:13.951Z,99251.84
2023-03-14T04:33:41.131Z,99251.00
2023-03-14T04:36:09.306Z,99279.28
2023-03-14T04:38:36.478Z,99263.84
2023-03-14T04:41:04.178Z,99289.56
2023-03-14T04:43:32.869Z,99296.41
2023-03-14T04:46:04.527Z,99300.69
2023-03-14T04:48:31.117Z,99307.59
2023-03-14T04:50:59.053Z,99311.91
2023-03-14T04:53:27.114Z,99321.38
2023-03-14T04:55:56.614Z,99320.50
2023-03-14T04:58:25.798Z,99334.25
2023-03-14T05:00:53.976Z,99342.00
2023-03-14T05:03:42.980Z,99337.75
2023-03-14T05:06:28.186Z,99354.88
2023-03-14T05:09:12.809Z,99358.34
2023-03-14T05:12:09.523Z,99364.38
2023-03-14T05:14:46.806Z,99378.91
2023-03-14T05:17:14.102Z,99378.09
2023-03-14T05:19:54.579Z,99378.94
2023-03-14T05:22:32.449Z,99385.81
2023-03-14T05:25:09.179Z,99392.66
2023-03-14T05:28:07.959Z,99403.81
2023-03-14T05:30:51.571Z,99410.66
2023-03-14T05:33:29.371Z,99404.66
2023-03-14T05:36:09.881Z,99412.41
2023-03-14T05:38:55.033Z,99418.41
2023-03-14T05:41:27.417Z,99432.91
2023-03-14T05:44:14.295Z,99444.06
2023-03-14T05:46:59.247Z,99444.91
2023-03-14T05:49:45.558Z,99450.91
2023-03-14T05:52:14.810Z,99462.03
2023-03-14T05:54:56.079Z,99478.28
2023-03-14T05:57:37.685Z,99483.41
2023-03-14T06:00:21.765Z,99504.81
2023-03-14T06:03:08.347Z,99508.22
2023-03-14T06:05:40.515Z,99527.94
2023-03-14T06:08:07.113Z,99529.63
2023-03-14T06:10:33.697Z,99543.31
2023-03-14T06:13:00.205Z,99545.03
2023-03-14T06:15:26.869Z,99555.31
2023-03-14T06:17:56.690Z,99557.88
2023-03-14T06:20:23.657Z,99559.56
2023-03-14T06:22:50.240Z,99588.63
2023-03-14T06:25:17.185Z,99584.38
2023-03-14T06:27:46.682Z,99598.88
2023-03-14T06:30:13.961Z,99602.28
2023-03-14T06:32:40.603Z,99609.97
2023-03-14T06:35:10.657Z,99624.50
2023-03-14T06:37:40.890Z,99632.19
2023-03-14T06:40:08.745Z,99640.72
2023-03-14T06:42:48.647Z,99653.53
2023-03-14T06:45:17.051Z,99674.94
2023-03-14T06:47:44.033Z,99691.16
2023-03-14T06:50:11.685Z,99688.63
2023-03-14T06:52:39.354Z,99715.09
2023-03-14T06:55:06.392Z,99719.34
2023-03-14T06:57:33.214Z,99737.28
2023-03-14T07:00:00.237Z,99739.84
2023-03-14T07:02:39.850Z,99755.19
2023-03-14T07:05:16.133Z,99762.91
2023-03-14T07:07:42.761Z,99783.44
2023-03-14T07:10:09.904Z,99780.78
2023-03-14T07:12:36.777Z,99798.72
2023-03-14T07:17:55.944Z,99811.47
2023-03-14T07:20:23.729Z,99826.84
2023-03-14T07:22:51.136Z,99829.41
2023-03-14T07:25:22.467Z,99841.34
2023-03-14T07:27:49.231Z,99859.34
2023-03-14T07:30:16.337Z,99873.00
2023-03-14T07:32:43.160Z,99881.53
2023-03-14T07:35:10.475Z,99890.91
2023-03-14T07:37:39.626Z,99902.03
2023-03-14T07:40:07.016Z,99912.28
2023-03-14T07:42:35.316Z,99931.94
2023-03-14T07:45:15.834Z,99936.13
2023-03-14T07:47:42.395Z,99942.13
2023-03-14T07:50:09.673Z,99962.59
2023-03-14T07:52:36.168Z,99975.41
2023-03-14T07:55:02.658Z,99981.38
2023-03-14T07:57:29.160Z,99994.19
2023-03-14T07:59:55.620Z,100001.84
2023-03-14T08:02:22.136Z,100007.78
2023-03-14T08:04:48.867Z,100032.59
2023-03-14T08:07:15.496Z,100036.84
2023-03-14T08:09:41.981Z,100046.22
2023-03-14T08:12:08.904Z,100046.22
2023-03-14T08:14:35.325Z,100060.75
2023-03-14T08:17:01.803Z,100069.28
2023-03-14T08:19:28.384Z,100073.63
2023-03-14T08:21:54.878Z,100088.13
2023-03-14T08:24:21.300Z,100092.44
2023-03-14T08:26:47.797Z,100102.72
2023-03-14T08:29:14.311Z,100117.25
2023-03-14T08:31:40.855Z,100127.50
2023-03-14T08:34:07.750Z,100136.91
2023-03-14T08:36:34.718Z,100146.28
2023-03-14T08:39:01.381Z,100158.25
2023-03-14T08:41:27.966Z,100162.44
2023-03-14T08:43:54.444Z,100177.00
2023-03-14T08:46:21.016Z,100188.13
2023-03-14T08:48:48.104Z,100198.44
2023-03-14T08:51:15.105Z,100201.00
2023-03-14T08:53:42.439Z,100198.44
2023-03-14T08:56:09.445Z,100217.31
2023-03-14T08:58:36.086Z,100225.00
2023-03-14T09:01:02.647Z,100228.38
2023-03-14T09:03:29.103Z,100234.41
2023-03-14T09:05:55.573Z,100239.59
2023-03-14T09:08:22.052Z,100234.53
2023-03-14T09:10:48.555Z,100247.47
2023-03-14T09:13:15.021Z,100270.69
2023-03-14T09:15:41.475Z,100267.38
2023-03-14T09:18:07.948Z,100283.75
2023-03-14T09:20:34.453Z,100288.97
2023-03-14T09:23:00.881Z,100303.63
2023-03-14T09:25:27.364Z,100308.81
2023-03-14T09:27:53.818Z,100320.03
2023-03-14T09:30:20.295Z,100327.03
2023-03-14T09:32:46.825Z,100335.66
2023-03-14T09:35:13.313Z,100334.81
2023-03-14T09:37:39.781Z,100341.59
2023-03-14T09:40:08.607Z,100352.78
2023-03-14T09:42:38.321Z,100345.91
2023-03-14T09:45:07.780Z,100356.34
2023-03-14T09:47:35.871Z,100362.44
2023-03-14T09:50:04.010Z,100376.31
2023-03-14T09:52:33.275Z,100364.34
2023-03-14T09:55:04.605Z,100373.06
2023-03-14T09:57:34.948Z,100399.72
2023-03-14T10:00:11.941Z,100399.84
2023-03-14T10:02:38.423Z,100407.66
2023-03-14T10:05:15.826Z,100405.94
2023-03-14T10:07:42.317Z,100419.75
2023-03-14T10:10:17.136Z,100425.91
2023-03-14T10:12:47.508Z,100432.09
2023-03-14T10:15:23.335Z,100428.00
2023-03-14T10:17:51.454Z,100432.56
2023-03-14T10:20:35.004Z,100433.63
2023-03-14T10:23:07.867Z,100454.50
2023-03-14T10:25:37.179Z,100445.25
2023-03-14T10:28:05.536Z,100452.31
2023-03-14T10:30:40.039Z,100459.41
2023-03-14T10:33:12.098Z,100467.28
2023-03-14T10:35:38.747Z,100488.03
2023-03-14T10:38:05.526Z,100485.50
2023-03-14T10:40:34.961Z,100504.44
2023-03-14T10:43:05.870Z,100493.25
2023-03-14T10:45:33.873Z,100495.81
2023-03-14T10:48:17.063Z,100503.56
2023-03-14T10:50:56.804Z,100518.19
2023-03-14T10:53:25.996Z,100530.25
2023-03-14T10:55:53.897Z,100538.81
2023-03-14T10:58:28.222Z,100544.00
2023-03-14T11:01:24.118Z,100540.50
2023-03-14T11:03:58.742Z,100543.91
2023-03-14T11:06:40.286Z,100549.06
2023-03-14T11:09:21.726Z,100568.09
2023-03-14T11:11:48.971Z,100565.53
2023-03-14T11:14:21.483Z,100567.28
2023-03-14T11:17:11.075Z,100558.66
2023-03-14T11:19:57.132Z,100580.19
2023-03-14T11:22:48.664Z,100578.50
2023-03-14T11:26:02.499Z,100573.31
2023-03-14T11:28:39.493Z,100581.91
2023-03-14T11:31:15.026Z,100598.28
2023-03-14T11:33:57.231Z,100601.69
2023-03-14T11:36:44.936Z,100620.66
2023-03-14T11:39:19.706Z,100616.38
2023-03-14T11:41:49.907Z,100612.91
2023-03-14T11:44:33.639Z,100619.88
2023-03-14T11:47:18.479Z,100624.25
2023-03-14T11:49:51.610Z,100618.22
2023-03-14T11:52:24.042Z,100638.06
2023-03-14T11:55:23.942Z,100642.38
2023-03-14T11:57:52.557Z,100638.91
2023-03-14T12:00:22.121Z,100655.25
2023-03-14T12:03:02.435Z,100661.31
2023-03-14T12:05:37.722Z,100668.22
2023-03-14T12:08:10.145Z,100665.66
2023-03-14T12:10:50.526Z,100676.84
2023-03-14T12:13:18.478Z,100682.03
2023-03-14T12:16:07.594Z,100681.19
2023-03-14T12:18:37.241Z,100691.50
2023-03-14T12:21:06.424Z,100689.75
2023-03-14T12:23:53.167Z,100695.78
2023-03-14T12:26:25.946Z,100698.38
2023-03-14T12:29:12.278Z,100694.03
2023-03-14T12:31:47.591Z,100691.44
2023-03-14T12:34:14.077Z,100696.63
2023-03-14T12:36:52.724Z,100690.59
2023-03-14T12:39:38.082Z,100695.84
2023-03-14T12:42:13.885Z,100700.16
2023-03-14T12:44:41.467Z,100689.81
2023-03-14T12:47:20.207Z,100709.66
2023-03-14T12:49:53.271Z,100702.75
2023-03-14T12:52:51.948Z,100720.88
2023-03-14T12:55:40.313Z,100718.28
2023-03-14T12:58:45.383Z,100735.53
2023-03-14T13:01:20.404Z,100724.28
2023-03-14T13:03:48.757Z,100736.38
2023-03-14T13:06:46.938Z,100746.75
2023-03-14T13:09:33.341Z,100745.91
2023-03-14T13:12:09.598Z,100738.13
2023-03-14T13:14:41.650Z,100731.22
2023-03-14T13:17:34.585Z,100741.56
2023-03-14T13:20:06.028Z,100730.34
2023-03-14T13:22:35.028Z,100737.25
2023-03-14T13:25:05.664Z,100727.75
2023-03-14T13:27:34.928Z,100736.34
2023-03-14T13:30:40.607Z,100738.94
2023-03-14T13:33:07.388Z,100753.59
2023-03-14T13:35:47.006Z,100737.16
2023-03-14T13:38:24.899Z,100746.72
2023-03-14T13:40:54.917Z,100732.03
2023-03-14T13:43:37.065Z,100737.22
2023-03-14T13:46:23.989Z,100737.16
2023-03-14T13:49:01.012Z,100737.88
2023-03-14T13:51:28.186Z,100749.81
2023-03-14T13:53:56.358Z,100754.97
2023-03-14T13:56:26.082Z,100758.41
2023-03-14T13:58:52.739Z,100752.34
2023-03-14T14:01:25.447Z,100768.66
2023-03-14T14:03:54.516Z,100766.75
2023-03-14T14:06:25.790Z,100760.59
2023-03-14T14:08:52.509Z,100775.97
2023-03-14T14:11:48.447Z,100783.81
2023-03-14T14:14:35.604Z,100783.09
2023-03-14T14:17:06.129Z,100777.19
2023-03-14T14:19:34.715Z,100777.38
2023-03-14T14:22:02.933Z,100782.69
2023-03-14T14:24:32.357Z,100789.69
2023-03-14T14:27:25.653Z,100789.75
2023-03-14T14:30:05.085Z,100804.50
2023-03-14T14:32:40.179Z,100802.81
2023-03-14T14:35:34.059Z,100814.09
2023-03-14T14:38:03.990Z,100820.97
2023-03-14T14:40:37.203Z,100843.41
2023-03-14T14:43:09.988Z,100854.50
2023-03-14T14:45:37.365Z,100865.47
2023-03-14T14:48:12.648Z,100867.69
2023-03-14T14:51:02.897Z,100880.28
2023-03-14T14:53:42.630Z,100896.44
2023-03-14T14:56:21.566Z,100897.75
2023-03-14T14:58:51.416Z,100926.06
2023-03-14T15:01:33.208Z,100906.78
2023-03-14T15:04:00.350Z,100931.69
2023-03-14T15:06:38.339Z,100939.31
2023-03-14T15:09:07.282Z,100934.00
2023-03-14T15:11:33.942Z,100932.25
2023-03-14T15:14:00.390Z,100930.50
2023-03-14T15:16:31.680Z,100933.94
2023-03-14T15:19:01.920Z,100926.97
2023-03-14T15:21:29.911Z,100923.50
2023-03-14T15:23:56.395Z,100919.16
2023-03-14T15:26:25.713Z,100918.16
2023-03-14T15:28:52.187Z,100935.34
2023-03-14T15:31:20.180Z,100938.72
2023-03-14T15:33:46.810Z,100933.41
2023-03-14T15:36:29.310Z,100922.06
2023-03-14T15:38:56.567Z,100906.56
2023-03-14T15:41:23.956Z,100895.25
2023-03-14T15:43:50.941Z,100900.50
2023-03-14T15:46:17.841Z,100896.59
2023-03-14T15:48:45.716Z,100881.66
2023-03-14T15:51:12.463Z,100873.34
2023-03-14T15:53:39.167Z,100867.38
2023-03-14T15:56:07.611Z,100865.69
2023-03-14T15:58:34.596Z,100872.56
2023-03-14T16:01:02.742Z,100894.03
2023-03-14T16:03:30.090Z,100893.13
2023-03-14T16:05:56.568Z,100892.25
2023-03-14T16:08:24.908Z,100894.81
2023-03-14T16:10:51.381Z,100897.34
2023-03-14T16:13:17.883Z,100891.31
2023-03-14T16:15:53.805Z,100894.75
2023-03-14T16:18:22.184Z,100900.69
2023-03-14T16:20:56.439Z,100914.41
2023-03-14T16:23:23.399Z,100902.34
2023-03-14T16:25:50.377Z,100904.00
2023-03-14T16:28:17.185Z,100910.78
2023-03-14T16:30:43.639Z,100901.28
2023-03-14T16:36:02.214Z,100945.78
2023-03-14T16:38:31.732Z,100972.31
2023-03-14T16:41:09.902Z,100967.06
2023-03-14T16:43:36.434Z,100974.69
2023-03-14T16:46:04.389Z,100980.66
2023-03-14T16:48:31.067Z,100971.00
2023-03-14T16:50:57.851Z,100973.44
2023-03-14T16:53:25.063Z,100971.63
2023-03-14T16:55:51.679Z,100956.16
2023-03-14T16:58:18.223Z,100956.25
2023-03-14T17:00:45.566Z,100953.69
2023-03-14T17:03:12.200Z,100940.78
2023-03-14T17:05:45.339Z,100946.75
2023-03-14T17:08:11.844Z,100946.66
2023-03-14T17:10:39.812Z,100960.44
2023-03-14T17:13:06.462Z,100962.97
2023-03-14T17:15:33.022Z,100946.63
2023-03-14T17:17:59.517Z,100951.72
2023-03-14T17:20:26.048Z,100955.91
2023-03-14T17:22:52.580Z,100952.38
2023-03-14T17:25:19.061Z,100956.53
2023-03-14T17:27:46.306Z,100966.66
2023-03-14T17:30:13.510Z,100976.81
2023-03-14T17:32:40.333Z,100975.88
2023-03-14T17:35:07.056Z,100978.31
2023-03-14T17:37:33.551Z,100991.19
2023-03-14T17:40:00.046Z,100990.22
2023-03-14T17:42:26.747Z,101005.63
2023-03-14T17:44:53.225Z,101023.59
2023-03-14T17:47:19.751Z,101020.09
2023-03-14T17:49:46.186Z,101009.81
2023-03-14T17:52:12.942Z,101014.03
2023-03-14T17:54:39.817Z,101028.63
2023-03-14T17:57:06.467Z,101040.59
2023-03-14T17:59:32.919Z,101031.97
2023-03-14T18:01:59.455Z,101039.66
2023-03-14T18:04:26.106Z,101037.97
2023-03-14T18:06:52.659Z,101039.63
2023-03-14T18:09:19.171Z,101051.56
2023-03-14T18:11:46.248Z,101044.69
2023-03-14T18:14:13.482Z,101065.34
2023-03-14T18:16:39.943Z,101056.72
2023-03-14T18:19:06.418Z,101060.97
2023-03-14T18:21:32.910Z,101072.91
2023-03-14T18:23:59.374Z,101070.34
2023-03-14T18:26:25.822Z,101078.81
2023-03-14T18:28:52.287Z,101083.09
2023-03-14T18:31:20.108Z,101083.09
2023-03-14T18:33:46.662Z,101082.22
2023-03-14T18:36:13.242Z,101094.16
2023-03-14T18:38:40.069Z,101099.31
2023-03-14T18:41:07.557Z,101107.84
2023-03-14T18:43:34.960Z,101101.00
2023-03-14T18:46:01.973Z,101099.25
2023-03-14T18:48:29.725Z,101102.72
2023-03-14T18:50:58.097Z,101107.84
2023-03-14T18:53:24.670Z,101100.13
2023-03-14T18:55:54.576Z,101088.88
2023-03-14T18:58:21.109Z,101109.53
2023-03-14T19:00:47.606Z,101105.28
2023-03-14T19:03:14.090Z,101106.06
2023-03-14T19:05:43.785Z,101101.72
2023-03-14T19:08:10.290Z,101121.56
2023-03-14T19:10:36.730Z,101131.84
2023-03-14T19:13:03.220Z,101131.84
2023-03-14T19:15:29.767Z,101138.69
2023-03-14T19:17:56.241Z,101140.41
2023-03-14T19:20:22.687Z,101144.69
2023-03-14T19:22:49.156Z,101147.19
2023-03-14T19:25:15.606Z,101153.25
2023-03-14T19:27:42.086Z,101151.53
2023-03-14T19:30:09.047Z,101153.19
2023-03-14T19:32:35.569Z,101158.41
2023-03-14T19:35:02.125Z,101167.84
2023-03-14T19:37:28.679Z,101172.13
2023-03-14T19:39:55.103Z,101176.38
2023-03-14T19:42:21.560Z,101169.44
2023-03-14T19:44:48.011Z,101172.88
2023-03-14T19:47:14.495Z,101179.69
2023-03-14T19:49:41.001Z,101172.84
2023-03-14T19:52:07.462Z,101167.69
2023-03-14T19:54:33.902Z,101168.41
2023-03-14T19:57:00.406Z,101178.53
2023-03-14T19:59:27.049Z,101185.38
2023-03-14T20:01:53.489Z,101189.59
2023-03-14T20:04:20.039Z,101185.22
2023-03-14T20:06:46.592Z,101186.88
2023-03-14T20:09:13.046Z,101192.81
2023-03-14T20:11:39.575Z,101187.63
2023-03-14T20:14:10.226Z,101185.88
2023-03-14T20:16:37.808Z,101193.38
2023-03-14T20:19:09.219Z,101189.13
2023-03-14T20:21:36.020Z,101190.81
2023-03-14T20:24:04.179Z,101184.75
2023-03-14T20:26:31.406Z,101195.91
2023-03-14T20:28:57.914Z,101203.59
2023-03-14T20:31:24.425Z,101206.13
2023-03-14T20:33:51.621Z,101211.25
2023-03-14T20:36:18.272Z,101207.81
2023-03-14T20:38:44.727Z,101211.97
2023-03-14T20:41:11.216Z,101221.34
2023-03-14T20:43:37.762Z,101219.63
2023-03-14T20:46:04.993Z,101224.75
2023-03-14T20:48:32.202Z,101216.09
2023-03-14T20:50:59.062Z,101227.25
2023-03-14T20:53:25.703Z,101227.97
2023-03-14T20:55:55.756Z,101245.13
2023-03-14T20:58:22.302Z,101228.72
2023-03-14T21:00:50.495Z,101239.06
2023-03-14T21:03:17.906Z,101239.81
2023-03-14T21:05:46.838Z,101243.06
2023-03-14T21:08:18.228Z,101247.34
2023-03-14T21:10:48.590Z,101248.09
2023-03-14T21:13:15.254Z,101251.38
2023-03-14T21:15:41.780Z,101247.00
2023-03-14T21:18:08.694Z,101258.06
2023-03-14T21:20:37.355Z,101248.50
2023-03-14T21:23:04.541Z,101258.66
2023-03-14T21:25:32.296Z,101267.88
2023-03-14T21:27:59.018Z,101268.56
2023-03-14T21:30:25.866Z,101258.97
2023-03-14T21:32:52.388Z,101263.97
2023-03-14T21:35:18.939Z,101262.97
2023-03-14T21:37:45.489Z,101274.00
2023-03-14T21:40:12.878Z,101267.84
2023-03-14T21:42:39.554Z,101273.78
2023-03-14T21:45:09.884Z,101274.47
2023-03-14T21:47:36.363Z,101270.88
2023-03-14T21:50:02.895Z,101276.91
2023-03-14T21:52:29.410Z,101286.16
2023-03-14T21:54:55.859Z,101283.47
2023-03-14T21:57:22.540Z,101287.56
2023-03-14T21:59:48.998Z,101286.59
2023-03-14T22:02:19.082Z,101272.59
2023-03-14T22:04:45.721Z,101277.72
2023-03-14T22:07:16.721Z,101270.56
2023-03-14T22:09:45.693Z,101286.84
2023-03-14T22:12:13.278Z,101278.97
2023-03-14T22:14:39.775Z,101295.06
2023-03-14T22:17:06.355Z,101298.28
2023-03-14T22:19:32.883Z,101303.28
2023-03-14T22:21:59.415Z,101293.63
2023-03-14T22:24:26.097Z,101295.25
2023-03-14T22:26:53.703Z,101301.16
2023-03-14T22:29:21.471Z,101306.16
2023-03-14T22:31:48.217Z,101303.44
2023-03-14T22:34:15.050Z,101313.63
2023-03-14T22:36:41.975Z,101313.53
2023-03-14T22:39:08.871Z,101308.34
2023-03-14T22:41:35.861Z,101314.94
2023-03-14T22:44:02.317Z,101315.81
2023-03-14T22:46:28.758Z,101325.16
2023-03-14T22:48:55.272Z,101320.72
2023-03-14T22:51:21.743Z,101330.09
2023-03-14T22:53:48.990Z,101320.56
2023-03-14T22:56:15.446Z,101324.72
2023-03-14T22:58:41.931Z,101317.72
2023-03-14T23:01:08.412Z,101330.53
2023-03-14T23:03:34.910Z,101324.38
2023-03-14T23:06:01.417Z,101333.78
2023-03-14T23:08:27.906Z,101330.25
2023-03-14T23:11:02.142Z,101332.75
2023-03-14T23:13:29.633Z,101327.53
2023-03-14T23:15:56.105Z,101332.53
2023-03-14T23:18:23.180Z,101336.78
2023-03-14T23:20:49.648Z,101334.84
2023-03-14T23:23:16.090Z,101337.41
2023-03-14T23:25:52.887Z,101348.47
2023-03-14T23:28:20.286Z,101347.56
2023-03-14T23:30:46.773Z,101349.19
2023-03-14T23:33:13.325Z,101348.13
2023-03-14T23:35:39.802Z,101355.81
2023-03-14T23:38:06.264Z,101352.31
2023-03-14T23:40:32.744Z,101366.78
2023-03-14T23:42:59.178Z,101371.91
2023-03-14T23:45:25.646Z,101374.47
2023-03-14T23:47:52.058Z,101382.91
2023-03-14T23:50:18.779Z,101380.16
2023-03-14T23:52:45.227Z,101377.59
2023-03-14T23:55:11.723Z,101372.31
2023-03-14T23:57:38.200Z,101372.19
